createdAt,value
2019-02-11T00:04:15.661Z,67.60
2019-02-11T00:09:21.463Z,68.80
2019-02-11T00:14:27.171Z,68.30
2019-02-11T00:19:31.346Z,68.40
2019-02-11T00:24:35.755Z,68.70
2019-02-11T00:29:40.214Z,69.00
2019-02-11T00:34:44.382Z,69.00
2019-02-11T00:39:49.231Z,69.00
2019-02-11T00:44:54.017Z,69.00
2019-02-11T00:49:58.888Z,69.00
2019-02-11T00:55:03.288Z,69.00
2019-02-11T01:00:10.737Z,69.20
2019-02-11T01:05:16.447Z,69.30
2019-02-11T01:10:20.779Z,69.40
2019-02-11T01:15:25.755Z,70.00
2019-02-11T01:20:30.030Z,69.90
2019-02-11T01:25:35.797Z,70.00
2019-02-11T01:30:40.073Z,70.00
2019-02-11T01:35:45.570Z,69.90
2019-02-11T01:40:50.685Z,69.90
2019-02-11T01:45:54.890Z,70.00
2019-02-11T01:51:00.246Z,69.90
2019-02-11T01:56:04.929Z,69.80
2019-02-11T02:01:09.110Z,69.80
2019-02-11T02:06:13.686Z,69.70
2019-02-11T02:11:17.943Z,69.60
2019-02-11T02:16:22.332Z,69.50
2019-02-11T02:21:26.605Z,69.50
2019-02-11T02:26:30.881Z,69.50
2019-02-11T02:31:36.603Z,69.20
2019-02-11T02:36:40.866Z,69.10
2019-02-11T02:41:46.726Z,69.10
2019-02-11T02:46:50.901Z,69.00
2019-02-11T02:51:55.745Z,68.90
2019-02-11T02:57:00.514Z,68.90
2019-02-11T03:02:04.909Z,69.00
2019-02-11T03:07:09.295Z,68.90
2019-02-11T03:12:13.470Z,68.80
2019-02-11T03:17:17.849Z,68.80
2019-02-11T03:22:22.021Z,68.70
2019-02-11T03:27:26.286Z,68.70
2019-02-11T03:32:31.058Z,68.70
2019-02-11T03:37:36.460Z,68.60
2019-02-11T03:42:41.266Z,69.30
2019-02-11T03:47:45.846Z,68.60
2019-02-11T03:52:50.110Z,68.60
2019-02-11T03:57:54.599Z,68.50
2019-02-11T04:02:58.870Z,68.50
2019-02-11T04:08:03.368Z,68.30
2019-02-11T04:13:07.755Z,68.30
2019-02-11T04:18:12.042Z,68.30
2019-02-11T04:23:17.303Z,68.30
2019-02-11T04:28:21.822Z,68.30
2019-02-11T04:33:25.990Z,68.20
2019-02-11T04:38:30.277Z,68.10
2019-02-11T04:43:34.798Z,68.10
2019-02-11T04:48:38.998Z,68.10
2019-02-11T04:53:43.462Z,68.10
2019-02-11T04:58:47.861Z,68.10
2019-02-11T05:03:53.947Z,68.00
2019-02-11T05:08:58.487Z,67.80
2019-02-11T05:14:02.666Z,67.80
2019-02-11T05:19:07.993Z,67.80
2019-02-11T05:24:12.622Z,67.80
2019-02-11T05:29:16.797Z,67.60
2019-02-11T05:34:21.394Z,67.80
2019-02-11T05:39:25.882Z,67.70
2019-02-11T05:44:30.508Z,67.80
2019-02-11T05:49:34.889Z,67.70
2019-02-11T05:54:39.354Z,67.70
2019-02-11T05:59:43.529Z,67.70
2019-02-11T06:04:49.025Z,67.70
2019-02-11T06:09:53.692Z,67.70
2019-02-11T06:15:04.078Z,67.70
2019-02-11T06:20:05.714Z,67.80
2019-02-11T06:25:11.422Z,67.70
2019-02-11T06:30:16.390Z,67.90
2019-02-11T06:35:20.574Z,68.50
2019-02-11T06:40:26.262Z,68.00
2019-02-11T06:45:30.406Z,68.00
2019-02-11T06:50:34.833Z,68.10
2019-02-11T06:55:39.295Z,67.90
2019-02-11T07:00:43.664Z,68.00
2019-02-11T07:05:48.749Z,67.80
2019-02-11T07:10:55.771Z,68.00
2019-02-11T07:15:59.136Z,68.00
2019-02-11T07:21:04.185Z,69.00
2019-02-11T07:26:09.897Z,66.10
2019-02-11T07:31:14.583Z,64.70
2019-02-11T07:36:19.877Z,63.90
2019-02-11T07:41:25.598Z,63.50
2019-02-11T07:46:29.872Z,63.10
2019-02-11T07:51:42.146Z,63.70
2019-02-11T07:56:41.362Z,64.00
2019-02-11T08:02:07.111Z,63.50
2019-02-11T08:07:11.286Z,63.00
2019-02-11T08:12:15.554Z,62.60
2019-02-11T08:17:20.480Z,63.50
2019-02-11T08:22:25.054Z,64.60
2019-02-11T08:27:30.341Z,65.20
2019-02-11T08:32:36.222Z,66.10
2019-02-11T08:37:41.966Z,66.40
2019-02-11T08:42:47.111Z,66.60
2019-02-11T08:47:51.649Z,66.90
2019-02-11T08:52:55.825Z,66.90
2019-02-11T08:58:00.450Z,67.10
2019-02-11T09:03:06.213Z,64.90
2019-02-11T09:08:11.101Z,63.80
2019-02-11T09:13:16.809Z,63.00
2019-02-11T09:18:22.538Z,63.30
2019-02-11T09:23:26.743Z,63.90
2019-02-11T09:28:31.149Z,64.10
2019-02-11T09:33:36.022Z,64.20
2019-02-11T09:38:41.406Z,64.30
2019-02-11T09:43:47.393Z,64.00
2019-02-11T09:48:53.321Z,63.90
2019-02-11T09:53:57.939Z,64.60
2019-02-11T09:59:02.345Z,65.10
2019-02-11T10:04:06.945Z,65.00
2019-02-11T10:09:11.951Z,65.20
2019-02-11T10:14:16.651Z,65.50
2019-02-11T10:19:22.758Z,65.80
2019-02-11T10:24:27.087Z,66.10
2019-02-11T10:29:32.514Z,65.00
2019-02-11T10:34:37.182Z,63.10
2019-02-11T10:39:42.909Z,62.00
2019-02-11T10:44:48.194Z,61.30
2019-02-11T10:49:53.955Z,60.90
2019-02-11T10:54:58.935Z,60.60
2019-02-11T11:00:04.091Z,60.20
2019-02-11T11:05:10.467Z,59.80
2019-02-11T11:10:17.870Z,59.50
2019-02-11T11:15:23.486Z,59.30
2019-02-11T11:20:27.909Z,59.10
2019-02-11T11:25:32.709Z,58.80
2019-02-11T11:30:38.030Z,58.70
2019-02-11T11:35:43.726Z,58.30
2019-02-11T11:40:49.442Z,57.90
2019-02-11T11:45:54.434Z,57.80
2019-02-11T11:50:58.868Z,57.50
2019-02-11T11:56:03.463Z,57.40
2019-02-11T12:01:08.326Z,57.10
2019-02-11T12:06:13.778Z,56.90
2019-02-11T12:11:18.037Z,56.60
2019-02-11T12:16:22.502Z,56.50
2019-02-11T12:21:26.886Z,56.30
2019-02-11T12:26:31.369Z,56.10
2019-02-11T12:31:35.570Z,56.00
2019-02-11T12:36:39.931Z,55.60
2019-02-11T12:41:45.718Z,55.40
2019-02-11T12:46:50.309Z,55.00
2019-02-11T12:51:55.130Z,54.80
2019-02-11T12:56:59.409Z,54.70
2019-02-11T13:02:04.564Z,54.60
2019-02-11T13:07:09.133Z,54.40
2019-02-11T13:12:14.887Z,54.30
2019-02-11T13:17:33.252Z,54.30
2019-02-11T13:22:25.111Z,54.00
2019-02-11T13:27:29.826Z,54.10
2019-02-11T13:32:34.774Z,53.60
2019-02-11T13:37:39.562Z,53.70
2019-02-11T13:42:44.521Z,53.80
2019-02-11T13:47:56.258Z,54.70
2019-02-11T13:52:56.047Z,54.00
2019-02-11T13:58:00.580Z,53.90
2019-02-11T14:03:06.040Z,53.80
2019-02-11T14:08:10.625Z,53.90
2019-02-11T14:13:16.129Z,53.80
2019-02-11T14:18:20.388Z,53.90
2019-02-11T14:23:26.187Z,53.80
2019-02-11T14:28:30.426Z,53.70
2019-02-11T14:33:36.332Z,53.70
2019-02-11T14:38:40.759Z,53.70
2019-02-11T14:43:46.542Z,53.70
2019-02-11T14:48:50.727Z,53.70
2019-02-11T14:53:56.218Z,53.70
2019-02-11T14:59:00.494Z,53.60
2019-02-11T15:04:05.063Z,53.70
2019-02-11T15:09:09.344Z,53.80
2019-02-11T15:14:14.828Z,53.90
2019-02-11T15:19:19.006Z,55.00
2019-02-11T15:24:32.591Z,55.40
2019-02-11T15:29:36.888Z,55.80
2019-02-11T15:34:42.686Z,55.80
2019-02-11T15:39:47.961Z,55.50
2019-02-11T15:44:52.283Z,55.50
2019-02-11T15:49:56.487Z,55.50
2019-02-11T15:55:00.907Z,55.50
2019-02-11T16:00:07.570Z,55.80
2019-02-11T16:05:16.740Z,55.80
2019-02-11T16:10:21.987Z,55.60
2019-02-11T16:15:26.264Z,55.90
2019-02-11T16:20:32.657Z,55.70
2019-02-11T16:25:36.857Z,55.70
2019-02-11T16:30:41.572Z,55.70
2019-02-11T16:35:45.861Z,55.60
2019-02-11T16:40:50.346Z,55.50
2019-02-11T16:45:54.867Z,55.40
2019-02-11T16:50:59.047Z,55.50
2019-02-11T16:56:03.892Z,55.50
2019-02-11T17:01:08.067Z,55.50
2019-02-11T17:06:12.751Z,55.90
2019-02-11T17:11:17.630Z,56.50
2019-02-11T17:16:22.177Z,56.90
2019-02-11T17:21:26.957Z,56.90
2019-02-11T17:26:31.288Z,57.10
2019-02-11T17:31:35.463Z,57.00
2019-02-11T17:36:39.671Z,56.80
2019-02-11T17:41:44.447Z,56.60
2019-02-11T17:46:48.634Z,56.70
2019-02-11T17:51:52.798Z,56.90
2019-02-11T17:56:58.310Z,57.10
2019-02-11T18:02:03.015Z,56.90
2019-02-11T18:07:07.897Z,56.40
2019-02-11T18:12:12.638Z,55.80
2019-02-11T18:17:16.841Z,56.20
2019-02-11T18:22:21.178Z,55.80
2019-02-11T18:27:25.489Z,55.40
2019-02-11T18:32:29.667Z,54.80
2019-02-11T18:37:33.940Z,54.30
2019-02-11T18:42:38.233Z,53.70
2019-02-11T18:47:42.394Z,53.30
2019-02-11T18:52:46.567Z,52.90
2019-02-11T18:57:50.782Z,52.40
2019-02-11T19:02:56.490Z,52.10
2019-02-11T19:08:00.731Z,51.90
2019-02-11T19:13:05.744Z,51.60
2019-02-11T19:18:10.789Z,51.30
2019-02-11T19:23:15.315Z,51.00
2019-02-11T19:28:19.606Z,51.00
2019-02-11T19:33:24.354Z,50.90
2019-02-11T19:38:29.219Z,50.80
2019-02-11T19:43:33.910Z,50.70
2019-02-11T19:48:38.093Z,50.40
2019-02-11T19:53:42.272Z,50.20
2019-02-11T19:58:46.526Z,49.80
2019-02-11T20:03:50.818Z,49.50
2019-02-11T20:08:55.157Z,49.30
2019-02-11T20:13:59.519Z,49.10
2019-02-11T20:19:08.282Z,49.70
2019-02-11T20:24:15.106Z,49.90
2019-02-11T20:29:19.854Z,50.10
2019-02-11T20:34:25.174Z,50.10
2019-02-11T20:39:30.469Z,50.30
2019-02-11T20:44:35.956Z,50.70
2019-02-11T20:49:49.100Z,50.50
2019-02-11T20:54:54.942Z,50.50
2019-02-11T20:59:59.305Z,50.70
2019-02-11T21:05:04.077Z,50.70
2019-02-11T21:10:10.646Z,50.70
2019-02-11T21:15:15.685Z,50.60
2019-02-11T21:20:29.326Z,50.70
2019-02-11T21:25:34.086Z,50.70
2019-02-11T21:30:38.278Z,50.60
2019-02-11T21:35:53.600Z,50.50
2019-02-11T21:40:58.062Z,50.40
2019-02-11T21:46:12.460Z,50.30
2019-02-11T21:51:16.774Z,50.90
2019-02-11T21:56:21.045Z,50.80
2019-02-11T22:01:25.870Z,50.20
2019-02-11T22:06:30.244Z,50.20
2019-02-11T22:11:35.312Z,50.00
2019-02-11T22:16:39.694Z,50.00
2019-02-11T22:21:43.893Z,49.90
2019-02-11T22:26:48.473Z,49.90
2019-02-11T22:31:52.732Z,50.10
2019-02-11T22:36:57.004Z,50.00
2019-02-11T22:42:01.964Z,50.60
2019-02-11T22:47:07.826Z,50.00
2019-02-11T22:52:12.746Z,49.90
2019-02-11T22:57:16.938Z,50.00
2019-02-11T23:02:21.549Z,49.90
2019-02-11T23:07:25.958Z,49.80
2019-02-11T23:12:30.649Z,49.80
2019-02-11T23:17:35.093Z,49.80
2019-02-11T23:22:39.597Z,49.70
2019-02-11T23:27:44.292Z,49.40
2019-02-11T23:32:48.705Z,49.40
2019-02-11T23:37:55.791Z,49.30
2019-02-11T23:43:08.638Z,49.20
2019-02-11T23:48:17.298Z,49.70
2019-02-11T23:53:21.494Z,49.10
2019-02-11T23:58:25.901Z,49.00
